sensor_id;sensor_type;location;lat;lon;timestamp;temperature;humidity
2653;DHT22;1336;48.692;9.144;2024-02-21T06:00:45;8.20;97.20
2653;DHT22;1336;48.692;9.144;2024-02-21T06:01:37;8.20;97.20
2653;DHT22;1336;48.692;9.144;2024-02-21T06:02:28;8.20;97.20
2653;DHT22;1336;48.692;9.144;2024-02-21T06:03:19;8.10;97.20
2653;DHT22;1336;48.692;9.144;2024-02-21T06:04:10;8.10;97.20
2653;DHT22;1336;48.692;9.144;2024-02-21T06:05:01;8.00;97.20
2653;DHT22;1336;48.692;9.144;2024-02-21T06:05:52;8.00;97.20
2653;DHT22;1336;48.692;9.144;2024-02-21T06:06:44;7.90;97.20
2653;DHT22;1336;48.692;9.144;2024-02-21T06:07:35;7.90;97.20
2653;DHT22;1336;48.692;9.144;2024-02-21T06:08:26;7.90;97.20
2653;DHT22;1336;48.692;9.144;2024-02-21T06:09:18;7.80;97.20
2653;DHT22;1336;48.692;9.144;2024-02-21T06:10:09;7.80;97.20
2653;DHT22;1336;48.692;9.144;2024-02-21T06:10:59;7.80;97.20
2653;DHT22;1336;48.692;9.144;2024-02-21T06:11:51;7.80;97.20
2653;DHT22;1336;48.692;9.144;2024-02-21T06:12:42;7.80;97.20
2653;DHT22;1336;48.692;9.144;2024-02-21T06:13:33;7.70;97.20
2653;DHT22;1336;48.692;9.144;2024-02-21T06:14:25;7.70;97.20
2653;DHT22;1336;48.692;9.144;2024-02-21T06:15:15;7.70;97.20
2653;DHT22;1336;48.692;9.144;2024-02-21T06:16:09;7.70;97.20
2653;DHT22;1336;48.692;9.144;2024-02-21T06:16:59;7.70;97.20
2653;DHT22;1336;48.692;9.144;2024-02-21T06:17:50;7.80;97.20
2653;DHT22;1336;48.692;9.144;2024-02-21T06:18:42;7.80;97.20
2653;DHT22;1336;48.692;9.144;2024-02-21T06:19:33;7.80;97.20
2653;DHT22;1336;48.692;9.144;2024-02-21T06:20:25;7.80;97.20
2653;DHT22;1336;48.692;9.144;2024-02-21T06:21:16;7.80;97.20
2653;DHT22;1336;48.692;9.144;2024-02-21T06:22:07;7.90;97.20
2653;DHT22;1336;48.692;9.144;2024-02-21T06:23:00;7.90;97.20
2653;DHT22;1336;48.692;9.144;2024-02-21T06:23:51;7.90;97.20
2653;DHT22;1336;48.692;9.144;2024-02-21T06:24:42;7.90;97.20
2653;DHT22;1336;48.692;9.144;2024-02-21T06:25:34;7.90;97.20
2653;DHT22;1336;48.692;9.144;2024-02-21T06:26:25;7.90;97.20
2653;DHT22;1336;48.692;9.144;2024-02-21T06:27:16;7.90;97.20
2653;DHT22;1336;48.692;9.144;2024-02-21T06:28:08;7.90;97.20
2653;DHT22;1336;48.692;9.144;2024-02-21T06:28:59;7.90;97.20
2653;DHT22;1336;48.692;9.144;2024-02-21T06:29:52;7.90;97.20
2653;DHT22;1336;48.692;9.144;2024-02-21T06:30:43;7.90;97.20
2653;DHT22;1336;48.692;9.144;2024-02-21T06:31:36;7.90;97.20
2653;DHT22;1336;48.692;9.144;2024-02-21T06:32:28;7.90;97.20
2653;DHT22;1336;48.692;9.144;2024-02-21T06:33:19;7.90;97.20
2653;DHT22;1336;48.692;9.144;2024-02-21T06:34:15;7.90;97.20
2653;DHT22;1336;48.692;9.144;2024-02-21T06:35:07;7.90;97.20
2653;DHT22;1336;48.692;9.144;2024-02-21T06:35:58;7.90;97.20
2653;DHT22;1336;48.692;9.144;2024-02-21T06:36:49;7.90;97.20
2653;DHT22;1336;48.692;9.144;2024-02-21T06:37:41;7.90;97.20
2653;DHT22;1336;48.692;9.144;2024-02-21T06:38:32;7.90;97.20
2653;DHT22;1336;48.692;9.144;2024-02-21T06:39:24;7.90;97.20
2653;DHT22;1336;48.692;9.144;2024-02-21T06:40:15;7.90;97.20
2653;DHT22;1336;48.692;9.144;2024-02-21T06:41:15;7.90;97.20
2653;DHT22;1336;48.692;9.144;2024-02-21T06:42:06;7.90;97.20
2653;DHT22;1336;48.692;9.144;2024-02-21T06:42:57;7.90;97.20
2653;DHT22;1336;48.692;9.144;2024-02-21T06:43:48;7.90;97.20
2653;DHT22;1336;48.692;9.144;2024-02-21T06:44:39;7.90;97.20
2653;DHT22;1336;48.692;9.144;2024-02-21T06:45:31;7.90;97.20
2653;DHT22;1336;48.692;9.144;2024-02-21T06:46:25;7.90;97.20
2653;DHT22;1336;48.692;9.144;2024-02-21T06:47:20;7.90;97.20
2653;DHT22;1336;48.692;9.144;2024-02-21T06:48:11;7.90;97.20
2653;DHT22;1336;48.692;9.144;2024-02-21T06:49:02;8.00;97.20
2653;DHT22;1336;48.692;9.144;2024-02-21T06:49:54;7.90;97.20
2653;DHT22;1336;48.692;9.144;2024-02-21T06:50:45;7.90;97.20
2653;DHT22;1336;48.692;9.144;2024-02-21T06:51:37;7.90;97.20
2653;DHT22;1336;48.692;9.144;2024-02-21T06:52:29;7.90;97.20
2653;DHT22;1336;48.692;9.144;2024-02-21T06:53:21;7.80;97.20
2653;DHT22;1336;48.692;9.144;2024-02-21T06:54:12;7.80;97.20
2653;DHT22;1336;48.692;9.144;2024-02-21T06:55:04;7.80;97.20
2653;DHT22;1336;48.692;9.144;2024-02-21T06:55:55;7.90;97.20
2653;DHT22;1336;48.692;9.144;2024-02-21T06:56:45;7.90;97.20
2653;DHT22;1336;48.692;9.144;2024-02-21T06:57:37;7.90;97.20
2653;DHT22;1336;48.692;9.144;2024-02-21T06:58:28;7.90;97.20
2653;DHT22;1336;48.692;9.144;2024-02-21T06:59:19;8.00;97.20
2653;DHT22;1336;48.692;9.144;2024-02-21T07:00:12;8.00;97.20
2653;DHT22;1336;48.692;9.144;2024-02-21T07:01:03;8.00;97.20
2653;DHT22;1336;48.692;9.144;2024-02-21T07:01:54;8.00;97.20
2653;DHT22;1336;48.692;9.144;2024-02-21T07:02:49;8.00;97.20
2653;DHT22;1336;48.692;9.144;2024-02-21T07:03:40;8.10;97.20
2653;DHT22;1336;48.692;9.144;2024-02-21T07:04:32;8.10;97.20
2653;DHT22;1336;48.692;9.144;2024-02-21T07:05:23;8.10;97.20
2653;DHT22;1336;48.692;9.144;2024-02-21T07:06:14;8.20;97.20
2653;DHT22;1336;48.692;9.144;2024-02-21T07:07:05;8.20;97.20
2653;DHT22;1336;48.692;9.144;2024-02-21T07:07:56;8.20;97.20
2653;DHT22;1336;48.692;9.144;2024-02-21T07:08:48;8.20;97.20
2653;DHT22;1336;48.692;9.144;2024-02-21T07:09:39;8.20;97.20
2653;DHT22;1336;48.692;9.144;2024-02-21T07:10:31;8.30;97.20
2653;DHT22;1336;48.692;9.144;2024-02-21T07:11:22;8.30;97.20
2653;DHT22;1336;48.692;9.144;2024-02-21T07:12:12;8.30;97.20
2653;DHT22;1336;48.692;9.144;2024-02-21T07:13:04;8.30;97.20
2653;DHT22;1336;48.692;9.144;2024-02-21T07:13:57;8.30;97.20
2653;DHT22;1336;48.692;9.144;2024-02-21T07:14:47;8.40;97.20
2653;DHT22;1336;48.692;9.144;2024-02-21T07:15:39;8.40;97.20
2653;DHT22;1336;48.692;9.144;2024-02-21T07:16:30;8.40;97.20
2653;DHT22;1336;48.692;9.144;2024-02-21T07:17:23;8.40;97.20
2653;DHT22;1336;48.692;9.144;2024-02-21T07:18:16;8.40;97.20
2653;DHT22;1336;48.692;9.144;2024-02-21T07:19:07;8.50;97.20
2653;DHT22;1336;48.692;9.144;2024-02-21T07:19:58;8.50;97.20
2653;DHT22;1336;48.692;9.144;2024-02-21T07:20:50;8.50;97.20
2653;DHT22;1336;48.692;9.144;2024-02-21T07:21:42;8.50;97.20
2653;DHT22;1336;48.692;9.144;2024-02-21T07:22:33;8.50;97.20
2653;DHT22;1336;48.692;9.144;2024-02-21T07:23:25;8.60;97.20
2653;DHT22;1336;48.692;9.144;2024-02-21T07:24:16;8.60;97.20
2653;DHT22;1336;48.692;9.144;2024-02-21T07:25:08;8.60;97.20
2653;DHT22;1336;48.692;9.144;2024-02-21T07:25:59;8.70;97.20
2653;DHT22;1336;48.692;9.144;2024-02-21T07:26:50;8.70;97.20
2653;DHT22;1336;48.692;9.144;2024-02-21T07:27:42;8.70;97.20
2653;DHT22;1336;48.692;9.144;2024-02-21T07:28:32;8.80;97.20
2653;DHT22;1336;48.692;9.144;2024-02-21T07:29:24;8.80;97.20
2653;DHT22;1336;48.692;9.144;2024-02-21T07:30:15;8.90;97.20
2653;DHT22;1336;48.692;9.144;2024-02-21T07:31:06;8.90;97.20
2653;DHT22;1336;48.692;9.144;2024-02-21T07:31:57;8.90;97.20
2653;DHT22;1336;48.692;9.144;2024-02-21T07:32:49;9.00;97.20
2653;DHT22;1336;48.692;9.144;2024-02-21T07:33:41;9.00;97.20
2653;DHT22;1336;48.692;9.144;2024-02-21T07:34:33;9.00;97.20
2653;DHT22;1336;48.692;9.144;2024-02-21T07:35:24;9.10;97.20
2653;DHT22;1336;48.692;9.144;2024-02-21T07:36:15;9.10;97.20
2653;DHT22;1336;48.692;9.144;2024-02-21T07:37:07;9.20;97.20
2653;DHT22;1336;48.692;9.144;2024-02-21T07:37:57;9.20;97.20
2653;DHT22;1336;48.692;9.144;2024-02-21T07:38:48;9.30;97.20
2653;DHT22;1336;48.692;9.144;2024-02-21T07:39:41;9.30;97.20
2653;DHT22;1336;48.692;9.144;2024-02-21T07:40:32;9.30;97.20
2653;DHT22;1336;48.692;9.144;2024-02-21T07:41:25;9.40;97.20
2653;DHT22;1336;48.692;9.144;2024-02-21T07:42:15;9.40;97.20
2653;DHT22;1336;48.692;9.144;2024-02-21T07:43:06;9.40;97.20
2653;DHT22;1336;48.692;9.144;2024-02-21T07:43:58;9.50;97.20
2653;DHT22;1336;48.692;9.144;2024-02-21T07:44:49;9.50;97.20
2653;DHT22;1336;48.692;9.144;2024-02-21T07:45:39;9.50;97.20
2653;DHT22;1336;48.692;9.144;2024-02-21T07:46:31;9.50;97.20
2653;DHT22;1336;48.692;9.144;2024-02-21T07:47:22;9.50;97.20
2653;DHT22;1336;48.692;9.144;2024-02-21T07:48:13;9.60;97.20
2653;DHT22;1336;48.692;9.144;2024-02-21T07:49:06;9.60;97.20
2653;DHT22;1336;48.692;9.144;2024-02-21T07:49:57;9.60;97.20
2653;DHT22;1336;48.692;9.144;2024-02-21T07:50:49;9.70;97.20
2653;DHT22;1336;48.692;9.144;2024-02-21T07:51:40;9.70;97.20
2653;DHT22;1336;48.692;9.144;2024-02-21T07:52:32;9.70;97.20
2653;DHT22;1336;48.692;9.144;2024-02-21T07:53:23;9.70;97.20
2653;DHT22;1336;48.692;9.144;2024-02-21T07:54:15;9.70;97.20
2653;DHT22;1336;48.692;9.144;2024-02-21T07:55:06;9.70;97.20
2653;DHT22;1336;48.692;9.144;2024-02-21T07:55:57;9.70;97.20
2653;DHT22;1336;48.692;9.144;2024-02-21T07:56:48;9.80;97.20
2653;DHT22;1336;48.692;9.144;2024-02-21T07:57:39;9.80;97.20
2653;DHT22;1336;48.692;9.144;2024-02-21T07:58:30;9.80;97.20
2653;DHT22;1336;48.692;9.144;2024-02-21T07:59:21;9.80;97.20
2653;DHT22;1336;48.692;9.144;2024-02-21T08:00:13;9.90;97.20
2653;DHT22;1336;48.692;9.144;2024-02-21T08:01:10;9.90;97.20
2653;DHT22;1336;48.692;9.144;2024-02-21T08:02:01;9.90;97.20
2653;DHT22;1336;48.692;9.144;2024-02-21T08:02:53;9.90;97.20
2653;DHT22;1336;48.692;9.144;2024-02-21T08:03:43;9.90;97.20
2653;DHT22;1336;48.692;9.144;2024-02-21T08:04:36;10.00;97.20
2653;DHT22;1336;48.692;9.144;2024-02-21T08:05:28;10.00;97.20
2653;DHT22;1336;48.692;9.144;2024-02-21T08:06:20;10.00;97.20
2653;DHT22;1336;48.692;9.144;2024-02-21T08:07:11;10.00;97.20
2653;DHT22;1336;48.692;9.144;2024-02-21T08:08:03;10.10;97.20
2653;DHT22;1336;48.692;9.144;2024-02-21T08:08:54;10.10;97.20
2653;DHT22;1336;48.692;9.144;2024-02-21T08:09:45;10.10;97.20
2653;DHT22;1336;48.692;9.144;2024-02-21T08:10:36;10.10;97.20
2653;DHT22;1336;48.692;9.144;2024-02-21T08:11:29;10.10;97.20
2653;DHT22;1336;48.692;9.144;2024-02-21T08:12:21;10.10;97.20
2653;DHT22;1336;48.692;9.144;2024-02-21T08:13:12;10.10;97.20
2653;DHT22;1336;48.692;9.144;2024-02-21T08:14:03;10.20;97.20
2653;DHT22;1336;48.692;9.144;2024-02-21T08:14:54;10.20;97.20
2653;DHT22;1336;48.692;9.144;2024-02-21T08:15:45;10.20;97.20
2653;DHT22;1336;48.692;9.144;2024-02-21T08:16:37;10.20;97.20
2653;DHT22;1336;48.692;9.144;2024-02-21T08:17:27;10.30;97.20
2653;DHT22;1336;48.692;9.144;2024-02-21T08:18:19;10.30;97.20
2653;DHT22;1336;48.692;9.144;2024-02-21T08:19:10;10.30;97.20
2653;DHT22;1336;48.692;9.144;2024-02-21T08:20:04;10.30;97.20
2653;DHT22;1336;48.692;9.144;2024-02-21T08:20:55;10.40;97.20
2653;DHT22;1336;48.692;9.144;2024-02-21T08:21:47;10.40;97.20
2653;DHT22;1336;48.692;9.144;2024-02-21T08:22:38;10.40;97.20
2653;DHT22;1336;48.692;9.144;2024-02-21T08:23:29;10.40;97.20
2653;DHT22;1336;48.692;9.144;2024-02-21T08:24:20;10.40;97.20
2653;DHT22;1336;48.692;9.144;2024-02-21T08:25:13;10.40;97.20
2653;DHT22;1336;48.692;9.144;2024-02-21T08:26:04;10.40;97.20
2653;DHT22;1336;48.692;9.144;2024-02-21T08:26:56;10.50;97.20
2653;DHT22;1336;48.692;9.144;2024-02-21T08:27:47;10.50;97.20
2653;DHT22;1336;48.692;9.144;2024-02-21T08:28:39;10.50;97.20
2653;DHT22;1336;48.692;9.144;2024-02-21T08:29:29;10.50;97.20
2653;DHT22;1336;48.692;9.144;2024-02-21T08:30:21;10.50;97.20
2653;DHT22;1336;48.692;9.144;2024-02-21T08:31:18;10.50;97.20
2653;DHT22;1336;48.692;9.144;2024-02-21T08:32:09;10.60;97.20
2653;DHT22;1336;48.692;9.144;2024-02-21T08:33:01;10.60;97.20
2653;DHT22;1336;48.692;9.144;2024-02-21T08:33:51;10.70;97.20
2653;DHT22;1336;48.692;9.144;2024-02-21T08:34:42;10.70;97.20
2653;DHT22;1336;48.692;9.144;2024-02-21T08:35:35;10.70;97.20
2653;DHT22;1336;48.692;9.144;2024-02-21T08:36:26;10.70;97.20
2653;DHT22;1336;48.692;9.144;2024-02-21T08:37:17;10.70;97.20
2653;DHT22;1336;48.692;9.144;2024-02-21T08:38:08;10.70;97.20
2653;DHT22;1336;48.692;9.144;2024-02-21T08:39:00;10.80;97.20
2653;DHT22;1336;48.692;9.144;2024-02-21T08:39:51;10.80;97.20
2653;DHT22;1336;48.692;9.144;2024-02-21T08:40:42;10.80;97.20
2653;DHT22;1336;48.692;9.144;2024-02-21T08:41:34;10.80;97.20
2653;DHT22;1336;48.692;9.144;2024-02-21T08:42:25;10.80;97.20
2653;DHT22;1336;48.692;9.144;2024-02-21T08:43:16;10.90;97.20
2653;DHT22;1336;48.692;9.144;2024-02-21T08:44:07;10.90;97.20
2653;DHT22;1336;48.692;9.144;2024-02-21T08:44:59;10.90;97.20
2653;DHT22;1336;48.692;9.144;2024-02-21T08:45:49;11.00;97.20
2653;DHT22;1336;48.692;9.144;2024-02-21T08:46:40;11.00;97.20
2653;DHT22;1336;48.692;9.144;2024-02-21T08:47:32;11.00;97.20
2653;DHT22;1336;48.692;9.144;2024-02-21T08:48:22;11.00;97.20
2653;DHT22;1336;48.692;9.144;2024-02-21T08:49:15;11.00;97.20
2653;DHT22;1336;48.692;9.144;2024-02-21T08:50:07;11.10;97.20
2653;DHT22;1336;48.692;9.144;2024-02-21T08:51:01;11.10;97.20
2653;DHT22;1336;48.692;9.144;2024-02-21T08:51:52;11.10;97.20
2653;DHT22;1336;48.692;9.144;2024-02-21T08:52:44;11.10;97.20
2653;DHT22;1336;48.692;9.144;2024-02-21T08:53:34;11.20;97.20
2653;DHT22;1336;48.692;9.144;2024-02-21T08:54:25;11.20;97.20
2653;DHT22;1336;48.692;9.144;2024-02-21T08:55:17;11.20;97.20
2653;DHT22;1336;48.692;9.144;2024-02-21T08:56:07;11.20;97.20
2653;DHT22;1336;48.692;9.144;2024-02-21T08:56:58;11.30;97.20
2653;DHT22;1336;48.692;9.144;2024-02-21T08:57:50;11.30;97.20
2653;DHT22;1336;48.692;9.144;2024-02-21T08:58:41;11.30;97.20
2653;DHT22;1336;48.692;9.144;2024-02-21T08:59:31;11.30;97.20
2653;DHT22;1336;48.692;9.144;2024-02-21T09:00:23;11.30;97.20
2653;DHT22;1336;48.692;9.144;2024-02-21T09:01:17;11.40;97.20
2653;DHT22;1336;48.692;9.144;2024-02-21T09:02:09;11.40;97.20
2653;DHT22;1336;48.692;9.144;2024-02-21T09:02:59;11.40;97.20
2653;DHT22;1336;48.692;9.144;2024-02-21T09:03:50;11.40;97.20
2653;DHT22;1336;48.692;9.144;2024-02-21T09:04:44;11.40;97.20
2653;DHT22;1336;48.692;9.144;2024-02-21T09:05:34;11.40;97.20
2653;DHT22;1336;48.692;9.144;2024-02-21T09:06:27;11.40;97.20
2653;DHT22;1336;48.692;9.144;2024-02-21T09:07:19;11.50;97.20
2653;DHT22;1336;48.692;9.144;2024-02-21T09:08:11;11.50;97.20
2653;DHT22;1336;48.692;9.144;2024-02-21T09:09:01;11.50;97.20
2653;DHT22;1336;48.692;9.144;2024-02-21T09:09:53;11.50;97.20
2653;DHT22;1336;48.692;9.144;2024-02-21T09:10:44;11.50;97.20
2653;DHT22;1336;48.692;9.144;2024-02-21T09:11:35;11.50;97.20
2653;DHT22;1336;48.692;9.144;2024-02-21T09:12:27;11.50;97.20
2653;DHT22;1336;48.692;9.144;2024-02-21T09:13:18;11.60;97.20
2653;DHT22;1336;48.692;9.144;2024-02-21T09:14:10;11.60;97.20
2653;DHT22;1336;48.692;9.144;2024-02-21T09:15:00;11.60;97.20
2653;DHT22;1336;48.692;9.144;2024-02-21T09:15:51;11.60;97.20
2653;DHT22;1336;48.692;9.144;2024-02-21T09:16:43;11.60;97.20
2653;DHT22;1336;48.692;9.144;2024-02-21T09:17:34;11.60;97.20
2653;DHT22;1336;48.692;9.144;2024-02-21T09:18:25;11.70;97.20
2653;DHT22;1336;48.692;9.144;2024-02-21T09:19:17;11.70;97.20
2653;DHT22;1336;48.692;9.144;2024-02-21T09:20:09;11.70;97.20
2653;DHT22;1336;48.692;9.144;2024-02-21T09:21:02;11.70;97.20
2653;DHT22;1336;48.692;9.144;2024-02-21T09:21:54;11.70;97.20
2653;DHT22;1336;48.692;9.144;2024-02-21T09:22:45;11.70;97.20
2653;DHT22;1336;48.692;9.144;2024-02-21T09:23:37;11.70;97.20
2653;DHT22;1336;48.692;9.144;2024-02-21T09:24:28;11.80;97.20
2653;DHT22;1336;48.692;9.144;2024-02-21T09:25:18;11.80;97.20
2653;DHT22;1336;48.692;9.144;2024-02-21T09:26:10;11.80;97.20
2653;DHT22;1336;48.692;9.144;2024-02-21T09:27:04;11.80;97.20
2653;DHT22;1336;48.692;9.144;2024-02-21T09:27:56;11.80;97.20
2653;DHT22;1336;48.692;9.144;2024-02-21T09:28:48;11.80;97.20
2653;DHT22;1336;48.692;9.144;2024-02-21T09:29:39;11.80;97.20
2653;DHT22;1336;48.692;9.144;2024-02-21T09:30:31;11.80;97.20
2653;DHT22;1336;48.692;9.144;2024-02-21T09:31:21;11.80;97.20
2653;DHT22;1336;48.692;9.144;2024-02-21T09:32:12;11.80;97.20
2653;DHT22;1336;48.692;9.144;2024-02-21T09:33:04;11.80;97.20
2653;DHT22;1336;48.692;9.144;2024-02-21T09:33:55;11.80;97.20
2653;DHT22;1336;48.692;9.144;2024-02-21T09:34:46;11.80;97.20
2653;DHT22;1336;48.692;9.144;2024-02-21T09:35:37;11.90;97.20
2653;DHT22;1336;48.692;9.144;2024-02-21T09:36:28;11.90;97.20
2653;DHT22;1336;48.692;9.144;2024-02-21T09:37:21;11.90;97.20
2653;DHT22;1336;48.692;9.144;2024-02-21T09:38:12;11.90;97.20
2653;DHT22;1336;48.692;9.144;2024-02-21T09:39:04;11.90;97.20
2653;DHT22;1336;48.692;9.144;2024-02-21T09:39:54;11.90;97.20
2653;DHT22;1336;48.692;9.144;2024-02-21T09:40:45;11.90;97.20
2653;DHT22;1336;48.692;9.144;2024-02-21T09:41:40;11.90;97.20
2653;DHT22;1336;48.692;9.144;2024-02-21T09:42:38;11.90;97.20
2653;DHT22;1336;48.692;9.144;2024-02-21T09:43:30;12.00;97.20
2653;DHT22;1336;48.692;9.144;2024-02-21T09:44:21;12.00;97.20
2653;DHT22;1336;48.692;9.144;2024-02-21T09:45:19;12.00;97.20
2653;DHT22;1336;48.692;9.144;2024-02-21T09:46:16;12.00;97.20
2653;DHT22;1336;48.692;9.144;2024-02-21T09:47:10;12.00;97.20
2653;DHT22;1336;48.692;9.144;2024-02-21T09:48:19;12.00;97.20
2653;DHT22;1336;48.692;9.144;2024-02-21T09:49:20;12.10;97.20
2653;DHT22;1336;48.692;9.144;2024-02-21T09:50:13;12.10;97.20
2653;DHT22;1336;48.692;9.144;2024-02-21T09:51:07;12.10;97.20
2653;DHT22;1336;48.692;9.144;2024-02-21T09:52:00;12.10;97.20
2653;DHT22;1336;48.692;9.144;2024-02-21T09:52:56;12.10;97.20
2653;DHT22;1336;48.692;9.144;2024-02-21T09:53:49;12.10;97.20
2653;DHT22;1336;48.692;9.144;2024-02-21T09:54:42;12.20;97.20
2653;DHT22;1336;48.692;9.144;2024-02-21T09:55:36;12.20;97.20
2653;DHT22;1336;48.692;9.144;2024-02-21T09:56:30;12.20;97.20
2653;DHT22;1336;48.692;9.144;2024-02-21T09:57:22;12.20;97.20
2653;DHT22;1336;48.692;9.144;2024-02-21T09:58:15;12.30;97.20
2653;DHT22;1336;48.692;9.144;2024-02-21T09:59:07;12.30;97.20
2653;DHT22;1336;48.692;9.144;2024-02-21T10:00:01;12.30;97.20
2653;DHT22;1336;48.692;9.144;2024-02-21T10:00:57;12.30;97.20
2653;DHT22;1336;48.692;9.144;2024-02-21T10:01:50;12.30;97.20
2653;DHT22;1336;48.692;9.144;2024-02-21T10:02:42;12.40;97.20
2653;DHT22;1336;48.692;9.144;2024-02-21T10:03:32;12.40;97.20
2653;DHT22;1336;48.692;9.144;2024-02-21T10:04:25;12.40;97.20
2653;DHT22;1336;48.692;9.144;2024-02-21T10:05:16;12.40;97.20
2653;DHT22;1336;48.692;9.144;2024-02-21T10:06:08;12.40;97.20
2653;DHT22;1336;48.692;9.144;2024-02-21T10:06:59;12.40;97.20
2653;DHT22;1336;48.692;9.144;2024-02-21T10:07:51;12.40;97.20
2653;DHT22;1336;48.692;9.144;2024-02-21T10:08:43;12.40;97.20
2653;DHT22;1336;48.692;9.144;2024-02-21T10:09:42;12.40;97.20
2653;DHT22;1336;48.692;9.144;2024-02-21T10:10:42;12.40;97.20
2653;DHT22;1336;48.692;9.144;2024-02-21T10:11:34;12.50;97.20
2653;DHT22;1336;48.692;9.144;2024-02-21T10:12:26;12.50;97.20
2653;DHT22;1336;48.692;9.144;2024-02-21T10:13:25;12.50;97.20
2653;DHT22;1336;48.692;9.144;2024-02-21T10:14:17;12.50;97.20
2653;DHT22;1336;48.692;9.144;2024-02-21T10:15:09;12.50;97.20
2653;DHT22;1336;48.692;9.144;2024-02-21T10:16:05;12.50;97.20
2653;DHT22;1336;48.692;9.144;2024-02-21T10:16:57;12.60;97.20
2653;DHT22;1336;48.692;9.144;2024-02-21T10:17:50;12.50;97.20
2653;DHT22;1336;48.692;9.144;2024-02-21T10:18:40;12.60;97.20
2653;DHT22;1336;48.692;9.144;2024-02-21T10:19:32;12.60;97.20
2653;DHT22;1336;48.692;9.144;2024-02-21T10:20:23;12.60;97.20
2653;DHT22;1336;48.692;9.144;2024-02-21T10:21:14;12.60;97.20
2653;DHT22;1336;48.692;9.144;2024-02-21T10:22:07;12.60;97.20
2653;DHT22;1336;48.692;9.144;2024-02-21T10:23:02;12.70;97.20
2653;DHT22;1336;48.692;9.144;2024-02-21T10:23:59;12.70;97.20
2653;DHT22;1336;48.692;9.144;2024-02-21T10:24:50;12.70;97.20
2653;DHT22;1336;48.692;9.144;2024-02-21T10:25:42;12.70;97.20
2653;DHT22;1336;48.692;9.144;2024-02-21T10:26:36;12.70;97.20
2653;DHT22;1336;48.692;9.144;2024-02-21T10:27:28;12.70;97.20
2653;DHT22;1336;48.692;9.144;2024-02-21T10:28:19;12.70;97.20
2653;DHT22;1336;48.692;9.144;2024-02-21T10:29:13;12.80;97.20
2653;DHT22;1336;48.692;9.144;2024-02-21T10:30:06;12.80;97.20
2653;DHT22;1336;48.692;9.144;2024-02-21T10:30:57;12.80;97.20
2653;DHT22;1336;48.692;9.144;2024-02-21T10:31:48;12.80;97.20
2653;DHT22;1336;48.692;9.144;2024-02-21T10:32:49;12.80;97.20
2653;DHT22;1336;48.692;9.144;2024-02-21T10:33:41;12.90;97.20
2653;DHT22;1336;48.692;9.144;2024-02-21T10:34:32;12.90;97.20
2653;DHT22;1336;48.692;9.144;2024-02-21T10:35:28;12.90;97.20
2653;DHT22;1336;48.692;9.144;2024-02-21T10:36:19;12.90;97.20
2653;DHT22;1336;48.692;9.144;2024-02-21T10:37:11;12.90;97.20
2653;DHT22;1336;48.692;9.144;2024-02-21T10:38:02;12.90;97.20
2653;DHT22;1336;48.692;9.144;2024-02-21T10:38:54;12.90;97.20
2653;DHT22;1336;48.692;9.144;2024-02-21T10:39:47;12.90;97.20
2653;DHT22;1336;48.692;9.144;2024-02-21T10:40:38;12.90;97.20
2653;DHT22;1336;48.692;9.144;2024-02-21T10:41:30;12.90;97.20
2653;DHT22;1336;48.692;9.144;2024-02-21T10:42:22;12.90;97.20
2653;DHT22;1336;48.692;9.144;2024-02-21T10:43:14;13.00;97.20
2653;DHT22;1336;48.692;9.144;2024-02-21T10:44:10;13.00;97.20
2653;DHT22;1336;48.692;9.144;2024-02-21T10:45:02;13.00;97.20
2653;DHT22;1336;48.692;9.144;2024-02-21T10:45:56;13.00;97.20
2653;DHT22;1336;48.692;9.144;2024-02-21T10:46:48;13.00;97.20
2653;DHT22;1336;48.692;9.144;2024-02-21T10:47:39;13.00;97.20
2653;DHT22;1336;48.692;9.144;2024-02-21T10:48:41;13.00;97.20
2653;DHT22;1336;48.692;9.144;2024-02-21T10:49:33;13.10;97.20
2653;DHT22;1336;48.692;9.144;2024-02-21T10:50:30;13.10;97.20
2653;DHT22;1336;48.692;9.144;2024-02-21T10:51:27;13.10;97.20
2653;DHT22;1336;48.692;9.144;2024-02-21T10:52:26;13.10;97.20
2653;DHT22;1336;48.692;9.144;2024-02-21T10:53:24;13.10;97.20
2653;DHT22;1336;48.692;9.144;2024-02-21T10:54:32;13.10;97.20
2653;DHT22;1336;48.692;9.144;2024-02-21T10:55:37;13.10;97.20
2653;DHT22;1336;48.692;9.144;2024-02-21T10:56:30;13.20;97.20
2653;DHT22;1336;48.692;9.144;2024-02-21T10:57:25;13.20;97.20
2653;DHT22;1336;48.692;9.144;2024-02-21T10:58:18;13.20;97.20
2653;DHT22;1336;48.692;9.144;2024-02-21T10:59:09;13.20;97.20
2653;DHT22;1336;48.692;9.144;2024-02-21T11:00:01;13.20;97.20
2653;DHT22;1336;48.692;9.144;2024-02-21T11:00:54;13.20;97.20
2653;DHT22;1336;48.692;9.144;2024-02-21T11:01:45;13.20;97.20
2653;DHT22;1336;48.692;9.144;2024-02-21T11:02:37;13.20;97.20
2653;DHT22;1336;48.692;9.144;2024-02-21T11:03:28;13.20;97.20
2653;DHT22;1336;48.692;9.144;2024-02-21T11:04:20;13.30;97.20
2653;DHT22;1336;48.692;9.144;2024-02-21T11:05:12;13.30;97.20
2653;DHT22;1336;48.692;9.144;2024-02-21T11:06:04;13.30;97.20
2653;DHT22;1336;48.692;9.144;2024-02-21T11:06:57;13.30;97.20
2653;DHT22;1336;48.692;9.144;2024-02-21T11:07:48;13.30;97.20
2653;DHT22;1336;48.692;9.144;2024-02-21T11:08:39;13.40;97.20
2653;DHT22;1336;48.692;9.144;2024-02-21T11:09:31;13.40;97.20
2653;DHT22;1336;48.692;9.144;2024-02-21T11:10:23;13.40;97.20
2653;DHT22;1336;48.692;9.144;2024-02-21T11:11:16;13.40;97.20
2653;DHT22;1336;48.692;9.144;2024-02-21T11:12:09;13.50;97.20
2653;DHT22;1336;48.692;9.144;2024-02-21T11:13:06;13.50;97.20
2653;DHT22;1336;48.692;9.144;2024-02-21T11:14:05;13.50;97.20
2653;DHT22;1336;48.692;9.144;2024-02-21T11:15:04;13.50;97.20
2653;DHT22;1336;48.692;9.144;2024-02-21T11:16:06;13.60;97.20
2653;DHT22;1336;48.692;9.144;2024-02-21T11:16:59;13.60;97.20
2653;DHT22;1336;48.692;9.144;2024-02-21T11:17:54;13.60;97.20
2653;DHT22;1336;48.692;9.144;2024-02-21T11:18:46;13.60;97.20
2653;DHT22;1336;48.692;9.144;2024-02-21T11:19:37;13.60;97.20
2653;DHT22;1336;48.692;9.144;2024-02-21T11:20:34;13.70;97.20
2653;DHT22;1336;48.692;9.144;2024-02-21T11:21:33;13.70;97.20
2653;DHT22;1336;48.692;9.144;2024-02-21T11:22:24;13.70;97.20
2653;DHT22;1336;48.692;9.144;2024-02-21T11:23:25;13.70;97.20
2653;DHT22;1336;48.692;9.144;2024-02-21T11:24:25;13.70;97.20
2653;DHT22;1336;48.692;9.144;2024-02-21T11:25:21;13.70;97.20
2653;DHT22;1336;48.692;9.144;2024-02-21T11:26:19;13.70;97.20
2653;DHT22;1336;48.692;9.144;2024-02-21T11:27:12;13.70;97.20
2653;DHT22;1336;48.692;9.144;2024-02-21T11:28:04;13.80;97.20
2653;DHT22;1336;48.692;9.144;2024-02-21T11:28:59;13.80;97.20
2653;DHT22;1336;48.692;9.144;2024-02-21T11:29:55;13.80;97.20
2653;DHT22;1336;48.692;9.144;2024-02-21T11:30:47;13.80;97.20
2653;DHT22;1336;48.692;9.144;2024-02-21T11:31:43;13.80;97.20
2653;DHT22;1336;48.692;9.144;2024-02-21T11:32:35;13.80;97.20
2653;DHT22;1336;48.692;9.144;2024-02-21T11:33:27;13.90;97.20
2653;DHT22;1336;48.692;9.144;2024-02-21T11:34:18;13.90;97.20
2653;DHT22;1336;48.692;9.144;2024-02-21T11:35:19;13.90;97.20
2653;DHT22;1336;48.692;9.144;2024-02-21T11:36:11;13.90;97.20
2653;DHT22;1336;48.692;9.144;2024-02-21T11:37:02;13.90;97.20
2653;DHT22;1336;48.692;9.144;2024-02-21T11:38:10;13.90;97.20
2653;DHT22;1336;48.692;9.144;2024-02-21T11:39:05;13.90;97.20
2653;DHT22;1336;48.692;9.144;2024-02-21T11:39:56;13.90;97.20
2653;DHT22;1336;48.692;9.144;2024-02-21T11:40:48;13.90;97.20
2653;DHT22;1336;48.692;9.144;2024-02-21T11:41:40;13.90;97.20
2653;DHT22;1336;48.692;9.144;2024-02-21T11:42:31;13.90;97.20
2653;DHT22;1336;48.692;9.144;2024-02-21T11:43:22;14.00;97.20
2653;DHT22;1336;48.692;9.144;2024-02-21T11:44:13;13.90;97.20